»·PEaware :: SWA959 KLAS-L35

SWA959 :: KLAS-L35

FLIGHT INFORMATION

Flight Status: Arrived
Operator:
Southwest Airlines
More flights by this operator :: More flights under this callsign
Pilot: Max W. (2591)
Aircraft: BOEING 737-200
(B732)
More flights by this aircraft type
Origin: KLAS McCarran Intl
United States
Destination: L35 Big Bear City
United States
More flights between these airports :: More routes between these airports
Route: MCRRN4 HEC VCV
File this flight plan on PilotEdge
Remarks:
Altitude:
(Current/Filed)
26,000ft
Speed:
(Current/Filed)
450kts
Departed: 07-Aug-17 10:34 AM
Arrived: 07-Aug-17 11:06 AM
Distance/Time
Traveled:
137nm/0:32
Distance/Time
To Go:
Arrived

Flight Plot

Page will automatically refresh every two minutes.

Flight plan parsing failed; only flown route is shown


Map Options




Map Legend


Flown Route
Filed Route
Departure Airport
Arrival Airport
Navaid (VOR, NDB)
Fix

Horizontal Profiles

Position Reports

Time Latitude Longitude Heading Altitude Ground
Speed
07-Aug-17 10:14 36.080930 -115.146026 254 2190ft 0kts
07-Aug-17 10:15 36.080930 -115.146026 254 2190ft 0kts
07-Aug-17 10:16 36.080930 -115.146026 254 2190ft 0kts
07-Aug-17 10:17 36.080930 -115.146026 254 2190ft 0kts
07-Aug-17 10:18 36.080930 -115.146026 254 2190ft 0kts
07-Aug-17 10:19 36.080930 -115.146026 254 2190ft 0kts
07-Aug-17 10:20 36.080930 -115.146026 254 2190ft 0kts
07-Aug-17 10:21 36.080930 -115.146026 254 2190ft 0kts
07-Aug-17 10:22 36.080930 -115.146026 254 2190ft 0kts
07-Aug-17 10:23 36.080930 -115.146026 254 2190ft 0kts
07-Aug-17 10:24 36.080930 -115.146026 254 2190ft 0kts
07-Aug-17 10:25 36.080930 -115.146026 254 2190ft 0kts
07-Aug-17 10:26 36.080930 -115.146026 254 2190ft 0kts
07-Aug-17 10:27 36.080930 -115.146026 254 2190ft 0kts
07-Aug-17 10:28 36.080930 -115.146026 254 2190ft 0kts
07-Aug-17 10:29 36.080930 -115.146026 254 2190ft 0kts
07-Aug-17 10:30 36.081058 -115.145483 241 2190ft 1kts
07-Aug-17 10:31 36.081322 -115.145347 161 2190ft 0kts
07-Aug-17 10:32 36.081322 -115.145347 161 2190ft 0kts
07-Aug-17 10:33 36.079836 -115.144496 160 2190ft 12kts
07-Aug-17 10:34 36.077700 -115.144823 249 2190ft 13kts
07-Aug-17 10:35 36.078014 -115.152841 268 2190ft 27kts
07-Aug-17 10:36 36.078020 -115.163198 271 2190ft 29kts
07-Aug-17 10:37 36.099275 -115.153123 19 2727ft 155kts
07-Aug-17 10:38 36.144235 -115.178269 327 4606ft 215kts
07-Aug-17 10:39 36.117352 -115.234760 191 6315ft 285kts
07-Aug-17 10:40 36.037600 -115.254698 191 9301ft 297kts
07-Aug-17 10:41 35.955507 -115.256379 174 12155ft 302kts
07-Aug-17 10:42 35.866310 -115.243793 174 13342ft 357kts
07-Aug-17 10:43 35.767067 -115.229983 175 15751ft 364kts
07-Aug-17 10:44 35.668985 -115.242535 220 17713ft 366kts
07-Aug-17 10:45 35.601544 -115.336289 230 19662ft 371kts
07-Aug-17 10:46 35.533597 -115.432846 230 21433ft 377kts
07-Aug-17 10:47 35.464596 -115.530762 230 23033ft 383kts
07-Aug-17 10:48 35.394545 -115.628735 230 24502ft 388kts
07-Aug-17 10:49 35.322950 -115.729210 230 25808ft 394kts
07-Aug-17 10:50 35.249014 -115.833126 230 26041ft 425kts
07-Aug-17 10:51 35.168688 -115.945743 230 26026ft 450kts
07-Aug-17 10:52 35.085846 -116.061501 229 26020ft 457kts
07-Aug-17 10:53 35.005652 -116.173871 229 26024ft 460kts
07-Aug-17 10:54 34.921333 -116.291338 229 26023ft 463kts
07-Aug-17 10:55 34.837474 -116.407447 229 26018ft 453kts
07-Aug-17 10:56 34.754543 -116.521236 228 25991ft 447kts
07-Aug-17 10:57 34.687941 -116.643506 221 25417ft 430kts
07-Aug-17 10:58 34.596102 -116.735444 221 22258ft 425kts
07-Aug-17 10:59 34.507284 -116.825007 221 19530ft 412kts
07-Aug-17 11:00 34.422921 -116.910571 221 16890ft 401kts
07-Aug-17 11:01 34.354885 -116.980571 221 14723ft 394kts
07-Aug-17 11:02 34.293267 -117.044663 220 12756ft 390kts
07-Aug-17 11:03 34.230426 -117.109740 220 11001ft 379kts
07-Aug-17 11:04 34.143768 -117.103125 100 10384ft 316kts
07-Aug-17 11:05 34.185055 -117.035514 36 10355ft 243kts
07-Aug-17 11:06 34.230102 -116.981411 49 10476ft 220kts
07-Aug-17 11:07 34.262278 -116.930725 79 8422ft 170kts
07-Aug-17 11:08 34.264059 -116.879479 87 7119ft 152kts
07-Aug-17 11:09 34.263963 -116.847039 94 6760ft 17kts
07-Aug-17 11:10 34.263360 -116.848659 272 6760ft 9kts
07-Aug-17 11:11 34.263354 -116.851766 254 6760ft 11kts
07-Aug-17 11:19 34.262415 -116.853831 31 6760ft 0kts

Navigation Log

Ident Type
Flight plan parsing failed, navigation log unavailable